Time;durP1;ratioP1;P1;durP2;ratioP2;P2;SDS_P1;SDS_P2;PMS_P1;PMS_P2;Temp;Humidity;BMP_temperature;BMP_pressure;BME280_temperature;BME280_humidity;BME280_pressure;Samples;Min_cycle;Max_cycle;Signal;HPM_P1;HPM_P2
2022/01/01 00:02:20;;;;;;;281.67;132.00;;;6.80;99.90;;;;;;4916613;29;20031;-75
2022/01/01 00:04:47;;;;;;;265.90;126.75;;;6.80;99.90;;;;;;4916371;29;20036;-75
2022/01/01 00:07:14;;;;;;;231.93;107.80;;;6.80;99.90;;;;;;4916460;29;20024;-75
2022/01/01 00:09:40;;;;;;;237.38;102.50;;;6.80;99.90;;;;;;4916137;29;20024;-75
2022/01/01 00:12:06;;;;;;;239.45;112.47;;;6.80;99.90;;;;;;4915168;29;20020;-75
2022/01/01 00:14:32;;;;;;;232.23;107.47;;;6.80;99.90;;;;;;4916188;29;20393;-75
2022/01/01 00:16:58;;;;;;;230.55;106.00;;;6.80;99.90;;;;;;4915630;29;20031;-76
2022/01/01 00:19:24;;;;;;;232.25;109.45;;;6.80;99.90;;;;;;4916177;29;20044;-74
2022/01/01 00:21:49;;;;;;;229.50;106.90;;;6.80;99.90;;;;;;4916136;29;20027;-76
2022/01/01 00:24:15;;;;;;;206.38;101.25;;;6.80;99.90;;;;;;4915819;29;20054;-75
2022/01/01 00:26:41;;;;;;;223.05;102.78;;;6.80;99.90;;;;;;4899103;29;20028;-75
2022/01/01 00:29:07;;;;;;;196.55;95.25;;;6.80;99.90;;;;;;4915476;29;20024;-76
2022/01/01 00:31:33;;;;;;;218.13;101.13;;;6.80;99.90;;;;;;4915928;29;20035;-76
2022/01/01 00:33:59;;;;;;;210.60;100.88;;;6.80;99.90;;;;;;4915364;29;20029;-75
2022/01/01 00:36:28;;;;;;;217.20;100.50;;;6.80;99.90;;;;;;4915032;29;20032;-75
2022/01/01 00:38:54;;;;;;;219.40;101.75;;;6.80;99.90;;;;;;4895637;29;20477;-73
2022/01/01 00:41:21;;;;;;;214.02;98.78;;;6.80;99.90;;;;;;4915568;29;20380;-75
2022/01/01 00:43:47;;;;;;;216.43;101.25;;;6.80;99.90;;;;;;4915320;29;20051;-76
2022/01/01 00:46:14;;;;;;;248.52;113.22;;;6.80;99.90;;;;;;4915423;29;20063;-75
2022/01/01 00:48:39;;;;;;;274.55;126.97;;;6.80;99.90;;;;;;4915572;29;20028;-74
2022/01/01 00:51:05;;;;;;;229.63;104.68;;;6.80;99.90;;;;;;4915456;29;20439;-72
2022/01/01 00:53:31;;;;;;;229.55;108.30;;;6.80;99.90;;;;;;4915345;29;20476;-75
2022/01/01 00:55:57;;;;;;;230.65;110.35;;;6.80;99.90;;;;;;4915041;29;20036;-75
2022/01/01 00:58:23;;;;;;;257.20;116.63;;;6.80;99.90;;;;;;4914324;29;20039;-75
2022/01/01 01:00:49;;;;;;;240.18;110.90;;;6.80;99.90;;;;;;4912952;29;20536;-75
2022/01/01 01:03:16;;;;;;;221.13;92.38;;;6.70;99.90;;;;;;4915862;29;20040;-76
2022/01/01 01:05:44;;;;;;;184.20;78.47;;;6.80;99.90;;;;;;4915830;29;20067;-75
2022/01/01 01:08:11;;;;;;;179.85;72.57;;;6.80;99.90;;;;;;4915216;29;20523;-74
2022/01/01 01:10:38;;;;;;;196.98;73.20;;;6.70;99.90;;;;;;4915249;29;20059;-75
2022/01/01 01:13:05;;;;;;;184.50;71.80;;;6.70;99.90;;;;;;4915524;29;20060;-74
2022/01/01 01:15:32;;;;;;;167.52;67.85;;;6.70;99.90;;;;;;4914966;29;20091;-75
2022/01/01 01:17:58;;;;;;;162.98;63.63;;;6.60;99.90;;;;;;4914159;29;20012;-75
2022/01/01 01:20:26;;;;;;;191.65;68.05;;;6.60;99.90;;;;;;4913945;29;20397;-74
2022/01/01 01:22:52;;;;;;;178.13;68.63;;;6.50;99.90;;;;;;4915194;29;20068;-75
2022/01/01 01:25:18;;;;;;;186.30;69.35;;;6.40;99.90;;;;;;4898352;29;20400;-75
2022/01/01 01:27:44;;;;;;;200.18;73.00;;;6.40;99.90;;;;;;4915403;29;20039;-75
2022/01/01 01:30:14;;;;;;;192.20;67.80;;;6.40;99.90;;;;;;4914380;29;20528;-74
2022/01/01 01:32:41;;;;;;;176.65;63.72;;;6.30;99.90;;;;;;4908436;29;20024;-75
2022/01/01 01:35:08;;;;;;;155.88;61.28;;;6.30;99.90;;;;;;4915378;29;20027;-76
2022/01/01 01:37:33;;;;;;;289.65;64.70;;;6.30;99.90;;;;;;4915425;29;20043;-75
2022/01/01 01:39:59;;;;;;;160.60;64.78;;;6.20;99.90;;;;;;4915763;29;20024;-75
2022/01/01 01:42:27;;;;;;;194.35;69.90;;;6.10;99.90;;;;;;4915339;29;20396;-75
2022/01/01 01:44:54;;;;;;;202.45;71.00;;;6.10;99.90;;;;;;4915680;29;20033;-75
2022/01/01 01:47:27;;;;;;;183.55;70.90;;;6.10;99.90;;;;;;4917885;29;20060;-75
2022/01/01 01:49:53;;;;;;;230.55;79.55;;;6.10;99.90;;;;;;4919346;29;20028;-75
2022/01/01 01:52:20;;;;;;;203.75;77.75;;;6.10;99.90;;;;;;4918833;29;20098;-76
2022/01/01 01:54:46;;;;;;;175.50;70.57;;;6.10;99.90;;;;;;4919184;29;20115;-74
2022/01/01 01:57:12;;;;;;;191.40;70.97;;;6.10;99.90;;;;;;4902426;29;20123;-74
2022/01/01 01:59:40;;;;;;;167.25;66.40;;;6.10;99.90;;;;;;4919418;29;20036;-75
2022/01/01 02:02:07;;;;;;;284.40;73.50;;;6.10;99.90;;;;;;4918671;29;20063;-74
2022/01/01 02:04:33;;;;;;;217.07;68.88;;;6.00;99.90;;;;;;4919271;29;20036;-75
2022/01/01 02:06:59;;;;;;;250.25;73.85;;;5.90;99.90;;;;;;4919462;29;20039;-75
2022/01/01 02:09:25;;;;;;;217.68;81.38;;;5.90;99.90;;;;;;4919195;29;20421;-72
2022/01/01 02:11:54;;;;;;;269.75;85.55;;;5.90;99.90;;;;;;4919250;29;20029;-75
2022/01/01 02:14:50;;;;;;;244.52;91.43;;;5.90;99.90;;;;;;4918000;29;20028;-75
2022/01/01 02:17:16;;;;;;;251.63;96.28;;;5.90;99.90;;;;;;4912829;29;20042;-75
2022/01/01 02:19:47;;;;;;;365.10;100.50;;;5.80;99.90;;;;;;4918966;29;20032;-75
2022/01/01 02:22:14;;;;;;;277.65;101.85;;;5.70;99.90;;;;;;4918911;29;20033;-74
2022/01/01 02:24:39;;;;;;;251.15;103.32;;;5.70;99.90;;;;;;4918965;29;20036;-75
2022/01/01 02:27:05;;;;;;;373.80;112.07;;;5.80;99.90;;;;;;4918924;29;20049;-75
2022/01/01 02:29:31;;;;;;;390.67;112.95;;;5.80;99.90;;;;;;4918646;29;20458;-74
2022/01/01 02:31:57;;;;;;;284.92;109.47;;;5.70;99.90;;;;;;4918354;29;20055;-72
2022/01/01 02:34:23;;;;;;;406.73;111.65;;;5.70;99.90;;;;;;4918610;29;20032;-75
2022/01/01 02:36:49;;;;;;;276.80;109.45;;;5.70;99.90;;;;;;4918810;29;20028;-75
2022/01/01 02:39:17;;;;;;;289.98;111.22;;;5.70;99.90;;;;;;4918795;29;20028;-72
2022/01/01 02:41:43;;;;;;;282.13;107.72;;;5.70;99.90;;;;;;4918874;29;20028;-75
2022/01/01 02:44:09;;;;;;;373.90;108.78;;;5.80;99.90;;;;;;4917817;29;20035;-75
2022/01/01 02:46:35;;;;;;;403.33;113.75;;;5.80;99.90;;;;;;4900580;29;20036;-71
2022/01/01 02:49:02;;;;;;;273.33;108.10;;;5.80;99.90;;;;;;4918271;29;20477;-75
2022/01/01 02:51:28;;;;;;;341.88;111.22;;;5.80;99.90;;;;;;4918135;29;20055;-76
2022/01/01 02:53:54;;;;;;;395.67;110.13;;;5.80;99.90;;;;;;4916740;29;20496;-76
2022/01/01 02:56:19;;;;;;;320.35;108.57;;;5.80;99.90;;;;;;4916528;29;20457;-76
2022/01/01 02:58:45;;;;;;;244.73;106.55;;;5.80;99.90;;;;;;4901195;29;20028;-76
2022/01/01 03:01:11;;;;;;;247.45;102.40;;;5.80;99.90;;;;;;4917327;29;20028;-75
2022/01/01 03:03:37;;;;;;;219.98;90.10;;;5.80;99.90;;;;;;4916699;29;20425;-74
2022/01/01 03:06:03;;;;;;;222.20;88.78;;;5.80;99.90;;;;;;4900493;29;20401;-75
2022/01/01 03:08:29;;;;;;;200.50;82.97;;;5.80;99.90;;;;;;4901054;29;20382;-75
2022/01/01 03:10:54;;;;;;;198.52;82.32;;;5.80;99.90;;;;;;4900758;29;20381;-76
2022/01/01 03:13:20;;;;;;;210.70;84.22;;;5.80;99.90;;;;;;4916725;29;20024;-76
2022/01/01 03:15:46;;;;;;;216.93;83.55;;;5.80;99.90;;;;;;4916584;29;20083;-75
2022/01/01 03:18:12;;;;;;;338.88;87.95;;;5.80;99.90;;;;;;4898910;29;20123;-76
2022/01/01 03:20:38;;;;;;;223.27;85.10;;;5.70;99.90;;;;;;4915545;29;20032;-78
2022/01/01 03:23:03;;;;;;;196.32;83.45;;;5.70;99.90;;;;;;4915050;29;20032;-78
2022/01/01 03:25:30;;;;;;;194.88;84.60;;;5.70;99.90;;;;;;4914762;29;20047;-78
2022/01/01 03:27:56;;;;;;;196.90;81.47;;;5.70;99.90;;;;;;4915483;29;20086;-78
2022/01/01 03:30:22;;;;;;;210.10;84.75;;;5.70;99.90;;;;;;4915654;29;20028;-75
2022/01/01 03:32:48;;;;;;;202.73;81.18;;;5.70;99.90;;;;;;4915439;29;20122;-76
2022/01/01 03:35:13;;;;;;;195.75;79.60;;;5.80;99.90;;;;;;4915324;29;20610;-79
2022/01/01 03:37:39;;;;;;;223.77;79.18;;;5.70;99.90;;;;;;4915911;29;20024;-78
2022/01/01 03:40:06;;;;;;;196.02;81.22;;;5.70;99.90;;;;;;4916898;29;20473;-77
2022/01/01 03:42:32;;;;;;;187.93;81.10;;;5.70;99.90;;;;;;4916875;29;20076;-77
2022/01/01 03:44:57;;;;;;;190.23;80.05;;;5.70;99.90;;;;;;4916482;29;20429;-78
2022/01/01 03:47:23;;;;;;;182.13;78.68;;;5.70;99.90;;;;;;4917142;29;20362;-77
2022/01/01 03:49:51;;;;;;;184.95;79.93;;;5.70;99.90;;;;;;4917333;29;20382;-78
2022/01/01 03:52:18;;;;;;;187.80;79.25;;;5.70;99.90;;;;;;4916776;29;20024;-78
2022/01/01 03:54:43;;;;;;;215.18;83.30;;;5.80;99.90;;;;;;4916494;29;20048;-78
2022/01/01 03:57:09;;;;;;;183.82;79.18;;;5.70;99.90;;;;;;4917123;29;20076;-73
2022/01/01 03:59:35;;;;;;;197.32;80.95;;;5.70;99.90;;;;;;4917118;29;20028;-78
2022/01/01 04:02:00;;;;;;;228.48;81.43;;;5.70;99.90;;;;;;4916860;29;20104;-77
2022/01/01 04:04:26;;;;;;;175.43;78.00;;;5.70;99.90;;;;;;4916790;29;20028;-76
2022/01/01 04:06:53;;;;;;;191.48;79.47;;;5.70;99.90;;;;;;4916601;29;20438;-77
2022/01/01 04:09:19;;;;;;;195.70;75.57;;;5.60;99.90;;;;;;4916615;29;20473;-77
2022/01/01 04:11:45;;;;;;;195.30;79.30;;;5.60;99.90;;;;;;4916834;29;20040;-78
2022/01/01 04:14:13;;;;;;;234.98;78.63;;;5.60;99.90;;;;;;4917061;29;20032;-78
2022/01/01 04:16:40;;;;;;;265.65;80.78;;;5.50;99.90;;;;;;4916018;29;20057;-78
2022/01/01 04:19:06;;;;;;;224.38;74.43;;;5.50;99.90;;;;;;4899906;29;20039;-77
2022/01/01 04:21:31;;;;;;;186.90;77.38;;;5.50;99.90;;;;;;4916988;29;20032;-77
2022/01/01 04:23:57;;;;;;;179.52;76.30;;;5.40;99.90;;;;;;4916804;29;20040;-77
2022/01/01 04:26:24;;;;;;;247.55;76.80;;;5.50;99.90;;;;;;4916340;29;20040;-77
2022/01/01 04:28:50;;;;;;;293.75;77.88;;;5.50;99.90;;;;;;4916825;29;20050;-78
2022/01/01 04:31:16;;;;;;;262.25;79.03;;;5.50;99.90;;;;;;4916614;29;20032;-78
2022/01/01 04:33:43;;;;;;;215.32;74.18;;;5.50;99.90;;;;;;4916737;29;20472;-77
2022/01/01 04:36:08;;;;;;;219.38;74.88;;;5.50;99.90;;;;;;4916458;29;20028;-76
2022/01/01 04:38:39;;;;;;;203.57;75.32;;;5.60;99.90;;;;;;4916150;29;20048;-77
2022/01/01 04:41:11;;;;;;;198.85;76.03;;;5.50;99.90;;;;;;4916378;29;20028;-78
2022/01/01 04:43:38;;;;;;;182.43;78.03;;;5.50;99.90;;;;;;4916282;29;20040;-79
2022/01/01 04:46:04;;;;;;;195.23;74.07;;;5.50;99.90;;;;;;4899378;29;20092;-79
2022/01/01 04:48:30;;;;;;;197.18;72.85;;;5.60;99.90;;;;;;4899568;29;20476;-78
2022/01/01 04:50:56;;;;;;;530.15;82.97;;;5.50;99.90;;;;;;4916040;29;20028;-78
2022/01/01 04:53:22;;;;;;;172.43;71.45;;;5.60;99.90;;;;;;4916368;29;20036;-77
2022/01/01 04:55:48;;;;;;;217.45;75.80;;;5.50;99.90;;;;;;4916359;29;20032;-77
2022/01/01 04:58:15;;;;;;;179.02;70.68;;;5.50;99.90;;;;;;4916186;29;20031;-77
2022/01/01 05:00:41;;;;;;;189.63;67.72;;;5.50;99.90;;;;;;4915529;29;20036;-78
2022/01/01 05:03:07;;;;;;;160.45;67.75;;;5.50;99.90;;;;;;4905595;29;20032;-77
2022/01/01 05:05:33;;;;;;;216.25;64.85;;;5.50;99.90;;;;;;4916321;29;20132;-74
2022/01/01 05:07:58;;;;;;;184.30;65.85;;;5.50;99.90;;;;;;4899249;29;20044;-78
2022/01/01 05:10:24;;;;;;;213.38;67.80;;;5.60;99.90;;;;;;4916255;29;20031;-77
2022/01/01 05:12:53;;;;;;;321.13;69.82;;;5.60;99.90;;;;;;4916107;29;20492;-77
2022/01/01 05:15:19;;;;;;;323.33;65.47;;;5.60;99.90;;;;;;4907437;29;20032;-78
2022/01/01 05:17:45;;;;;;;198.57;60.50;;;5.60;99.90;;;;;;4916275;29;20144;-78
2022/01/01 05:20:11;;;;;;;148.70;59.58;;;5.50;99.90;;;;;;4916889;29;20028;-78
2022/01/01 05:22:37;;;;;;;199.15;62.05;;;5.50;99.90;;;;;;4920096;29;20031;-78
2022/01/01 05:25:02;;;;;;;187.25;63.70;;;5.50;99.90;;;;;;4919150;29;20393;-77
2022/01/01 05:27:31;;;;;;;218.88;62.20;;;5.50;99.90;;;;;;4919553;29;20103;-78
2022/01/01 05:29:57;;;;;;;249.48;62.95;;;5.60;99.90;;;;;;4919458;29;20076;-77
2022/01/01 05:32:23;;;;;;;179.65;64.47;;;5.50;99.90;;;;;;4919566;29;20028;-75
2022/01/01 05:34:48;;;;;;;193.32;59.97;;;5.60;99.90;;;;;;4919524;29;20102;-78
2022/01/01 05:37:14;;;;;;;205.40;62.25;;;5.60;99.90;;;;;;4919056;29;20036;-78
2022/01/01 05:39:40;;;;;;;246.15;64.57;;;5.50;99.90;;;;;;4918922;29;20035;-78
2022/01/01 05:42:05;;;;;;;330.85;64.45;;;5.50;99.90;;;;;;4919663;29;20107;-77
2022/01/01 05:44:31;;;;;;;206.73;60.53;;;5.50;99.90;;;;;;4919728;29;20044;-76
2022/01/01 05:46:57;;;;;;;219.35;64.07;;;5.50;99.90;;;;;;4919077;29;20080;-78
2022/01/01 05:49:23;;;;;;;223.50;61.63;;;5.50;99.90;;;;;;4919253;29;20036;-78
2022/01/01 05:51:48;;;;;;;393.95;65.82;;;5.50;99.90;;;;;;4919028;29;20035;-77
2022/01/01 05:54:14;;;;;;;356.50;68.38;;;5.40;99.90;;;;;;4918922;29;20048;-76
2022/01/01 05:56:40;;;;;;;214.50;65.10;;;5.40;99.90;;;;;;4919033;29;20066;-78
2022/01/01 05:59:06;;;;;;;283.08;66.85;;;5.30;99.90;;;;;;4919124;29;20056;-78
2022/01/01 06:01:32;;;;;;;378.25;64.57;;;5.30;99.90;;;;;;4919497;29;20453;-77
2022/01/01 06:03:57;;;;;;;198.10;62.90;;;5.30;99.90;;;;;;4901890;29;20039;-78
2022/01/01 06:06:23;;;;;;;224.95;64.40;;;5.40;99.90;;;;;;4918866;29;20032;-78
2022/01/01 06:08:48;;;;;;;197.50;61.72;;;5.40;99.90;;;;;;4918470;29;20016;-78
2022/01/01 06:11:14;;;;;;;420.98;65.47;;;5.40;99.90;;;;;;4918859;29;20397;-78
2022/01/01 06:13:40;;;;;;;172.80;60.35;;;5.30;99.90;;;;;;4902009;29;20056;-78
2022/01/01 06:16:05;;;;;;;323.02;59.90;;;5.30;99.90;;;;;;4918927;29;20024;-77
2022/01/01 06:18:31;;;;;;;312.30;62.22;;;5.30;99.90;;;;;;4918578;29;20047;-76
2022/01/01 06:20:57;;;;;;;247.43;56.67;;;5.30;99.90;;;;;;4919002;29;20145;-77
2022/01/01 06:23:23;;;;;;;313.63;60.17;;;5.20;99.90;;;;;;4918250;29;20119;-77
2022/01/01 06:25:49;;;;;;;320.23;61.08;;;5.20;99.90;;;;;;4918793;29;20061;-78
2022/01/01 06:28:15;;;;;;;285.88;61.40;;;5.10;99.90;;;;;;4918449;29;20031;-78
2022/01/01 06:30:40;;;;;;;288.30;59.28;;;5.10;99.90;;;;;;4918584;29;20054;-77
2022/01/01 06:33:18;;;;;;;188.02;57.38;;;5.10;99.90;;;;;;4918114;29;20035;-77
2022/01/01 06:35:45;;;;;;;301.88;61.97;;;5.10;99.90;;;;;;4901337;29;20433;-78
2022/01/01 06:38:13;;;;;;;161.57;54.75;;;5.10;99.90;;;;;;4918186;29;20028;-78
2022/01/01 06:40:40;;;;;;;270.90;56.08;;;5.10;99.90;;;;;;4918326;29;20034;-77
2022/01/01 06:43:07;;;;;;;266.15;56.97;;;5.10;99.90;;;;;;4901025;29;20496;-78
2022/01/01 06:45:33;;;;;;;210.32;54.75;;;5.10;99.90;;;;;;4917691;29;20040;-78
2022/01/01 06:47:59;;;;;;;178.82;55.88;;;5.10;99.90;;;;;;4918062;29;20483;-77
2022/01/01 06:50:24;;;;;;;265.80;56.10;;;5.10;99.90;;;;;;4918037;29;20388;-78
2022/01/01 06:52:51;;;;;;;157.93;58.47;;;5.20;99.90;;;;;;4918288;29;21205;-76
2022/01/01 06:55:17;;;;;;;147.25;57.00;;;5.20;99.90;;;;;;4918130;29;20091;-74
2022/01/01 06:57:43;;;;;;;134.88;56.80;;;5.30;99.90;;;;;;4918260;29;20035;-78
2022/01/01 07:00:10;;;;;;;142.80;56.50;;;5.30;99.90;;;;;;4917825;29;20024;-76
2022/01/01 07:02:40;;;;;;;136.68;57.55;;;5.40;99.90;;;;;;4917986;29;20494;-78
2022/01/01 07:05:07;;;;;;;149.10;57.25;;;5.50;99.90;;;;;;4918028;29;20385;-77
2022/01/01 07:07:33;;;;;;;141.20;58.47;;;5.60;99.90;;;;;;4917853;29;20028;-77
2022/01/01 07:09:59;;;;;;;146.23;58.72;;;5.60;99.90;;;;;;4917564;29;20060;-78
2022/01/01 07:12:24;;;;;;;150.02;62.65;;;5.70;99.90;;;;;;4917899;29;20816;-78
2022/01/01 07:14:50;;;;;;;127.80;52.47;;;5.80;99.90;;;;;;4918052;29;20028;-77
2022/01/01 07:17:16;;;;;;;128.95;49.00;;;5.90;99.90;;;;;;4917935;29;20092;-77
2022/01/01 07:19:41;;;;;;;116.97;49.17;;;5.90;99.90;;;;;;4917862;29;20539;-78
2022/01/01 07:22:07;;;;;;;124.15;52.17;;;6.10;99.90;;;;;;4900846;29;20485;-78
2022/01/01 07:24:32;;;;;;;123.55;48.15;;;6.10;99.90;;;;;;4917717;29;20119;-78
2022/01/01 07:26:58;;;;;;;156.30;46.85;;;6.10;99.90;;;;;;4917583;29;20496;-77
2022/01/01 07:29:24;;;;;;;177.27;43.67;;;6.00;99.90;;;;;;4918060;29;20051;-77
2022/01/01 07:31:53;;;;;;;179.50;43.38;;;5.90;99.90;;;;;;4918003;29;20024;-78
2022/01/01 07:34:20;;;;;;;213.90;44.53;;;5.70;99.90;;;;;;4917796;29;20028;-78
2022/01/01 07:36:46;;;;;;;123.35;41.55;;;5.70;99.90;;;;;;4917686;29;20028;-77
2022/01/01 07:39:11;;;;;;;262.85;46.67;;;5.60;99.90;;;;;;4917522;29;20031;-78
2022/01/01 07:41:37;;;;;;;127.22;40.90;;;5.70;99.90;;;;;;4917605;29;20028;-75
2022/01/01 07:44:03;;;;;;;235.50;45.63;;;5.60;99.90;;;;;;4915735;29;20080;-78
2022/01/01 07:46:28;;;;;;;212.57;43.90;;;5.50;99.90;;;;;;4917020;29;20032;-77
2022/01/01 07:48:54;;;;;;;117.07;44.08;;;5.50;99.90;;;;;;4917136;29;20031;-78
2022/01/01 07:51:20;;;;;;;162.00;42.80;;;5.40;99.90;;;;;;4916960;29;20031;-78
2022/01/01 07:53:45;;;;;;;331.08;46.22;;;5.50;99.90;;;;;;4918677;29;20027;-76
2022/01/01 07:56:11;;;;;;;176.45;41.63;;;5.50;99.90;;;;;;4917612;29;20060;-78
2022/01/01 07:58:36;;;;;;;195.15;42.30;;;5.40;99.90;;;;;;4917595;29;20067;-78
2022/01/01 08:01:02;;;;;;;419.52;47.45;;;5.50;99.90;;;;;;4917563;29;20031;-77
2022/01/01 08:03:28;;;;;;;208.30;40.03;;;5.50;99.90;;;;;;4917305;29;20028;-77
2022/01/01 08:05:54;;;;;;;103.55;41.03;;;5.50;99.90;;;;;;4917342;29;20493;-78
2022/01/01 08:08:21;;;;;;;184.77;39.75;;;5.50;99.90;;;;;;4916969;29;20020;-76
2022/01/01 08:10:46;;;;;;;302.70;43.72;;;5.50;99.90;;;;;;4917165;29;20020;-77
2022/01/01 08:13:21;;;;;;;194.88;39.50;;;5.50;99.90;;;;;;4916804;29;20035;-78
2022/01/01 08:15:46;;;;;;;141.98;39.88;;;5.50;99.90;;;;;;4916921;29;20024;-77
2022/01/01 08:18:12;;;;;;;174.25;43.05;;;5.50;99.90;;;;;;4917082;29;20115;-78
2022/01/01 08:20:38;;;;;;;138.50;40.40;;;5.50;99.90;;;;;;4917219;29;20052;-78
2022/01/01 08:23:04;;;;;;;282.15;41.58;;;5.60;99.90;;;;;;4917083;29;20020;-78
2022/01/01 08:25:30;;;;;;;117.20;39.38;;;5.70;99.90;;;;;;4916511;29;20042;-73
2022/01/01 08:27:56;;;;;;;155.57;38.80;;;5.80;99.90;;;;;;4916956;29;20024;-78
2022/01/01 08:30:22;;;;;;;129.07;37.13;;;5.80;99.90;;;;;;4916387;29;20082;-78
2022/01/01 08:32:47;;;;;;;81.57;35.75;;;5.90;99.90;;;;;;4916426;29;20130;-77
2022/01/01 08:35:13;;;;;;;98.28;38.97;;;6.00;99.90;;;;;;4917671;29;20032;-76
2022/01/01 08:37:39;;;;;;;92.40;38.00;;;6.10;99.90;;;;;;4917829;29;20035;-78
2022/01/01 08:40:05;;;;;;;94.28;37.88;;;6.30;99.90;;;;;;4916329;29;20036;-77
2022/01/01 08:42:32;;;;;;;107.00;37.75;;;6.40;99.90;;;;;;4916509;29;20031;-77
2022/01/01 08:44:57;;;;;;;89.45;37.97;;;6.40;99.90;;;;;;4916460;29;20123;-79
2022/01/01 08:47:26;;;;;;;99.88;38.50;;;6.50;99.90;;;;;;4916602;29;20103;-78
2022/01/01 08:49:55;;;;;;;89.80;39.05;;;6.50;99.90;;;;;;4916639;29;20496;-78
2022/01/01 08:52:23;;;;;;;103.88;37.83;;;6.70;99.90;;;;;;4916556;29;20500;-77
2022/01/01 08:54:55;;;;;;;86.30;38.22;;;6.70;99.90;;;;;;4916364;29;20055;-73
2022/01/01 08:57:21;;;;;;;107.95;48.40;;;6.80;99.90;;;;;;4916488;29;20029;-77
2022/01/01 08:59:46;;;;;;;126.75;51.92;;;6.80;99.90;;;;;;4909805;29;20024;-77
2022/01/01 09:02:12;;;;;;;141.10;53.38;;;6.90;99.90;;;;;;4916597;29;20024;-77
2022/01/01 09:04:38;;;;;;;145.50;54.53;;;6.90;99.90;;;;;;4916324;29;20044;-77
2022/01/01 09:07:04;;;;;;;150.15;53.80;;;7.00;99.90;;;;;;4916322;29;20024;-78
2022/01/01 09:09:29;;;;;;;118.22;50.28;;;7.00;99.90;;;;;;4916041;29;20424;-77
2022/01/01 09:11:55;;;;;;;122.00;51.67;;;7.00;99.90;;;;;;4915956;29;20488;-78
2022/01/01 09:14:21;;;;;;;127.50;53.17;;;7.00;99.90;;;;;;4916481;29;20032;-79
2022/01/01 09:16:46;;;;;;;141.95;56.83;;;7.00;99.90;;;;;;4916352;29;20048;-78
2022/01/01 09:19:13;;;;;;;129.40;53.38;;;7.10;99.90;;;;;;4916430;29;20553;-78
2022/01/01 09:21:39;;;;;;;136.93;56.15;;;7.10;99.90;;;;;;4916183;29;20021;-77
2022/01/01 09:24:05;;;;;;;135.90;60.63;;;7.20;99.90;;;;;;4916221;29;20030;-78
2022/01/01 09:26:30;;;;;;;136.88;59.45;;;7.20;99.90;;;;;;4916879;29;20028;-78
2022/01/01 09:28:56;;;;;;;128.80;57.95;;;7.20;99.90;;;;;;4915846;29;20031;-78
2022/01/01 09:31:22;;;;;;;115.88;52.58;;;7.20;99.90;;;;;;4915849;29;20039;-77
2022/01/01 09:33:48;;;;;;;122.80;53.42;;;7.30;99.90;;;;;;4916088;29;20032;-78
2022/01/01 09:36:17;;;;;;;114.28;51.28;;;7.30;99.90;;;;;;4916020;29;20024;-78
2022/01/01 09:38:44;;;;;;;108.05;49.70;;;7.40;99.90;;;;;;4916048;29;20032;-78
2022/01/01 09:41:12;;;;;;;104.97;49.05;;;7.50;99.90;;;;;;4916000;29;20095;-78
2022/01/01 09:43:38;;;;;;;105.45;47.08;;;7.50;99.90;;;;;;4915773;29;20119;-77
2022/01/01 09:46:04;;;;;;;101.50;43.97;;;7.50;99.90;;;;;;4916004;29;20112;-78
2022/01/01 09:48:30;;;;;;;95.90;45.53;;;7.50;99.90;;;;;;4915428;29;20031;-78
2022/01/01 09:50:59;;;;;;;90.35;42.20;;;7.50;99.90;;;;;;4915670;29;20039;-78
2022/01/01 09:53:27;;;;;;;87.57;41.95;;;7.50;99.90;;;;;;4898566;29;20020;-78
2022/01/01 09:55:54;;;;;;;87.72;41.47;;;7.60;99.90;;;;;;4915765;29;20082;-78
2022/01/01 09:58:24;;;;;;;80.80;39.55;;;7.50;99.90;;;;;;4915993;29;20496;-78
2022/01/01 10:00:50;;;;;;;87.05;42.10;;;7.60;99.90;;;;;;4916161;29;20389;-77
2022/01/01 10:03:16;;;;;;;88.80;42.78;;;7.60;99.90;;;;;;4916150;29;20024;-78
2022/01/01 10:06:08;;;;;;;75.00;40.13;;;7.70;99.90;;;;;;4916072;29;20059;-77
2022/01/01 10:08:37;;;;;;;;;;;7.70;99.90;;;;;;4918499;29;20032;-78
2022/01/01 10:11:03;;;;;;;77.47;40.25;;;7.70;99.90;;;;;;4919445;29;19917;-78
2022/01/01 10:13:37;;;;;;;73.00;38.58;;;7.80;99.90;;;;;;4919051;29;20099;-77
2022/01/01 10:16:08;;;;;;;75.72;38.75;;;7.80;99.90;;;;;;4918903;29;20038;-78
2022/01/01 10:18:42;;;;;;;78.68;38.92;;;7.80;99.90;;;;;;4919050;29;20035;-78
2022/01/01 10:21:13;;;;;;;73.15;39.40;;;7.90;99.90;;;;;;4918603;29;20055;-78
2022/01/01 10:23:42;;;;;;;75.55;39.83;;;7.90;99.90;;;;;;4919042;29;20028;-78
2022/01/01 10:29:07;;;;;;;58.92;33.33;;;7.90;99.90;;;;;;4918779;29;20087;-78
2022/01/01 10:31:34;;;;;;;68.93;34.85;;;8.00;99.90;;;;;;4918930;29;20043;-78
2022/01/01 10:34:00;;;;;;;76.32;37.90;;;8.00;99.90;;;;;;4918633;29;20107;-78
2022/01/01 10:36:30;;;;;;;66.07;34.60;;;8.00;99.90;;;;;;4918809;29;20031;-78
2022/01/01 10:39:07;;;;;;;54.72;31.38;;;8.10;99.90;;;;;;4918741;29;20052;-78
2022/01/01 10:41:48;;;;;;;51.75;29.42;;;8.10;99.90;;;;;;4901718;29;20036;-78
2022/01/01 10:44:14;;;;;;;54.30;29.98;;;8.10;99.90;;;;;;4918515;29;20036;-78
2022/01/01 10:46:41;;;;;;;55.60;32.78;;;8.00;99.90;;;;;;4918450;29;20511;-78
2022/01/01 10:49:37;;;;;;;59.17;32.15;;;8.00;99.90;;;;;;4918525;29;20027;-78
2022/01/01 10:52:19;;;;;;;62.50;34.63;;;8.00;99.90;;;;;;4918191;29;20028;-76
2022/01/01 10:55:02;;;;;;;61.42;33.78;;;8.00;99.90;;;;;;4918248;29;20516;-78
2022/01/01 10:57:37;;;;;;;62.30;33.58;;;8.00;99.90;;;;;;4918182;29;20035;-78
2022/01/01 11:00:20;;;;;;;70.25;38.50;;;8.00;99.90;;;;;;4917558;29;20445;-76
2022/01/01 11:02:51;;;;;;;59.50;34.58;;;8.00;99.90;;;;;;4917853;29;20028;-78
2022/01/01 11:05:33;;;;;;;74.32;40.65;;;8.10;99.90;;;;;;4917847;29;20056;-77
2022/01/01 11:08:00;;;;;;;91.43;45.13;;;8.10;99.90;;;;;;4917935;29;20087;-78
2022/01/01 11:10:27;;;;;;;96.80;49.47;;;8.10;99.90;;;;;;4917705;29;20032;-77
2022/01/01 11:12:54;;;;;;;96.75;48.13;;;8.00;99.90;;;;;;4917830;29;20499;-77
2022/01/01 11:15:20;;;;;;;88.95;46.47;;;8.00;99.90;;;;;;4917936;29;20028;-78
2022/01/01 11:17:47;;;;;;;110.53;56.92;;;8.00;99.90;;;;;;4917509;29;20048;-74
2022/01/01 11:20:14;;;;;;;105.85;52.63;;;8.10;99.90;;;;;;4916681;29;20098;-77
2022/01/01 11:22:42;;;;;;;108.00;51.67;;;8.10;99.90;;;;;;4917750;29;20429;-77
2022/01/01 11:25:08;;;;;;;124.18;70.70;;;8.10;99.90;;;;;;4918065;29;20039;-76
2022/01/01 11:27:34;;;;;;;114.70;53.85;;;8.10;99.90;;;;;;4900704;29;20047;-76
2022/01/01 11:30:03;;;;;;;103.57;53.33;;;8.00;99.90;;;;;;4918320;29;20107;-78
2022/01/01 11:32:54;;;;;;;113.05;59.08;;;8.10;99.90;;;;;;4917201;29;20039;-75
2022/01/01 11:35:27;;;;;;;106.50;52.25;;;8.10;99.90;;;;;;4921839;29;20028;-74
2022/01/01 11:38:10;;;;;;;101.57;53.13;;;8.10;99.90;;;;;;4917404;29;20107;-77
2022/01/01 11:40:54;;;;;;;105.75;52.30;;;8.10;99.90;;;;;;4920228;29;20039;-76
2022/01/01 11:43:58;;;;;;;109.18;53.90;;;8.10;99.90;;;;;;4918053;29;20031;-73
2022/01/01 11:46:29;;;;;;;127.88;55.53;;;8.10;99.90;;;;;;4930452;29;20033;-76
2022/01/01 11:49:03;;;;;;;123.43;55.90;;;8.10;99.90;;;;;;4934134;29;20021;-75
2022/01/01 11:51:36;;;;;;;113.45;54.45;;;8.30;99.90;;;;;;4931360;29;20055;-77
2022/01/01 11:54:21;;;;;;;104.00;53.47;;;8.40;99.90;;;;;;4932258;29;20060;-78
2022/01/01 11:56:50;;;;;;;108.97;55.05;;;8.50;99.90;;;;;;4927879;29;20048;-82
2022/01/01 11:59:27;;;;;;;119.00;61.20;;;8.60;99.90;;;;;;4939234;29;20047;-86
2022/01/01 12:02:05;;;;;;;110.97;56.10;;;8.80;99.90;;;;;;4931424;29;20150;-74
2022/01/01 12:04:54;;;;;;;113.43;56.75;;;9.00;99.90;;;;;;4931294;29;20028;-77
2022/01/01 12:07:19;;;;;;;104.97;55.70;;;9.30;99.90;;;;;;4932569;29;20052;-78
2022/01/01 12:10:06;;;;;;;97.53;51.25;;;9.60;99.90;;;;;;4932688;29;20028;-79
2022/01/01 12:12:50;;;;;;;86.25;46.65;;;9.90;99.90;;;;;;4931431;29;20016;-79
2022/01/01 12:15:26;;;;;;;78.28;43.28;;;10.10;99.90;;;;;;4932388;29;20032;-78
2022/01/01 12:17:57;;;;;;;80.80;47.30;;;10.30;99.90;;;;;;4931203;29;20024;-75
2022/01/01 12:20:50;;;;;;;86.97;47.70;;;10.40;99.90;;;;;;4929175;29;20042;-77
2022/01/01 12:23:17;;;;;;;85.13;46.33;;;10.40;99.90;;;;;;4932456;29;20350;-77
2022/01/01 12:25:45;;;;;;;78.40;44.95;;;10.40;99.90;;;;;;4930365;29;20072;-79
2022/01/01 12:28:18;;;;;;;86.68;45.65;;;10.40;99.90;;;;;;4927835;29;20524;-77
2022/01/01 12:30:51;;;;;;;88.43;47.38;;;10.30;99.90;;;;;;4916742;29;20031;-76
2022/01/01 12:33:45;;;;;;;85.97;45.88;;;10.30;99.90;;;;;;4913424;29;20039;-77
2022/01/01 12:36:13;;;;;;;81.60;45.85;;;10.30;99.90;;;;;;4913993;29;20039;-75